sensor_id;sensor_type;location;lat;lon;timestamp;pressure;altitude;pressure_sealevel;temperature
68745;BMP180;55731;45.456;11.064;2022-10-26T00:01:55;101251.00;;;18.50
68745;BMP180;55731;45.456;11.064;2022-10-26T00:04:29;101256.60;;;18.50
68745;BMP180;55731;45.456;11.064;2022-10-26T00:07:02;101258.60;;;18.50
68745;BMP180;55731;45.456;11.064;2022-10-26T00:09:36;101253.20;;;18.50
68745;BMP180;55731;45.456;11.064;2022-10-26T00:12:10;101258.20;;;18.50
68745;BMP180;55731;45.456;11.064;2022-10-26T00:14:43;101260.60;;;18.50
68745;BMP180;55731;45.456;11.064;2022-10-26T00:17:16;101257.20;;;18.40
68745;BMP180;55731;45.456;11.064;2022-10-26T00:19:50;101261.00;;;18.40
68745;BMP180;55731;45.456;11.064;2022-10-26T00:22:24;101259.20;;;18.20
68745;BMP180;55731;45.456;11.064;2022-10-26T00:24:57;101256.60;;;18.10
68745;BMP180;55731;45.456;11.064;2022-10-26T00:27:30;101265.40;;;18.00
68745;BMP180;55731;45.456;11.064;2022-10-26T00:30:06;101272.20;;;18.00
68745;BMP180;55731;45.456;11.064;2022-10-26T00:32:40;101282.40;;;18.00
68745;BMP180;55731;45.456;11.064;2022-10-26T00:35:13;101281.40;;;18.00
68745;BMP180;55731;45.456;11.064;2022-10-26T00:37:59;101287.40;;;18.00
68745;BMP180;55731;45.456;11.064;2022-10-26T00:40:32;101285.80;;;18.00
68745;BMP180;55731;45.456;11.064;2022-10-26T00:43:09;101285.80;;;18.00
68745;BMP180;55731;45.456;11.064;2022-10-26T00:45:46;101284.20;;;18.00
68745;BMP180;55731;45.456;11.064;2022-10-26T00:48:25;101275.20;;;18.00
68745;BMP180;55731;45.456;11.064;2022-10-26T00:51:03;101277.40;;;17.90
68745;BMP180;55731;45.456;11.064;2022-10-26T00:53:38;101282.60;;;17.90
68745;BMP180;55731;45.456;11.064;2022-10-26T00:56:12;101287.60;;;17.90
68745;BMP180;55731;45.456;11.064;2022-10-26T00:58:45;101286.40;;;17.90
68745;BMP180;55731;45.456;11.064;2022-10-26T01:01:18;101285.40;;;17.80
68745;BMP180;55731;45.456;11.064;2022-10-26T01:03:52;101283.20;;;17.80
68745;BMP180;55731;45.456;11.064;2022-10-26T01:06:25;101282.20;;;17.90
68745;BMP180;55731;45.456;11.064;2022-10-26T01:08:58;101271.00;;;17.90
68745;BMP180;55731;45.456;11.064;2022-10-26T01:11:32;101268.40;;;17.90
68745;BMP180;55731;45.456;11.064;2022-10-26T01:14:10;101265.20;;;17.92
68745;BMP180;55731;45.456;11.064;2022-10-26T01:17:01;101258.20;;;18.00
68745;BMP180;55731;45.456;11.064;2022-10-26T01:20:24;101258.60;;;17.92
68745;BMP180;55731;45.456;11.064;2022-10-26T01:23:09;101250.00;;;17.96
68745;BMP180;55731;45.456;11.064;2022-10-26T01:25:55;101245.80;;;18.00
68745;BMP180;55731;45.456;11.064;2022-10-26T01:31:41;101227.60;;;17.96
68745;BMP180;55731;45.456;11.064;2022-10-26T01:34:23;101213.80;;;17.90
68745;BMP180;55731;45.456;11.064;2022-10-26T01:37:01;101209.80;;;17.90
68745;BMP180;55731;45.456;11.064;2022-10-26T01:39:43;101215.80;;;17.80
68745;BMP180;55731;45.456;11.064;2022-10-26T01:42:19;101215.00;;;17.70
68745;BMP180;55731;45.456;11.064;2022-10-26T01:44:58;101224.80;;;17.70
68745;BMP180;55731;45.456;11.064;2022-10-26T01:47:34;101225.80;;;17.70
68745;BMP180;55731;45.456;11.064;2022-10-26T01:50:11;101230.40;;;17.68
68745;BMP180;55731;45.456;11.064;2022-10-26T01:52:46;101233.60;;;17.70
68745;BMP180;55731;45.456;11.064;2022-10-26T01:55:59;101238.40;;;17.70
68745;BMP180;55731;45.456;11.064;2022-10-26T01:59:15;101237.40;;;17.70
68745;BMP180;55731;45.456;11.064;2022-10-26T02:02:45;101229.40;;;17.70
68745;BMP180;55731;45.456;11.064;2022-10-26T02:05:51;101233.80;;;17.70
68745;BMP180;55731;45.456;11.064;2022-10-26T02:11:38;101232.80;;;17.70
68745;BMP180;55731;45.456;11.064;2022-10-26T02:14:24;101230.00;;;17.70
68745;BMP180;55731;45.456;11.064;2022-10-26T02:17:06;101227.80;;;17.70
68745;BMP180;55731;45.456;11.064;2022-10-26T02:19:45;101226.00;;;17.60
68745;BMP180;55731;45.456;11.064;2022-10-26T02:22:23;101228.00;;;17.64
68745;BMP180;55731;45.456;11.064;2022-10-26T02:25:06;101232.40;;;17.70
68745;BMP180;55731;45.456;11.064;2022-10-26T02:27:48;101231.20;;;17.62
68745;BMP180;55731;45.456;11.064;2022-10-26T02:30:23;101233.20;;;17.60
68745;BMP180;55731;45.456;11.064;2022-10-26T02:32:58;101221.80;;;17.50
68745;BMP180;55731;45.456;11.064;2022-10-26T02:35:34;101217.60;;;17.50
68745;BMP180;55731;45.456;11.064;2022-10-26T02:38:12;101213.00;;;17.46
68745;BMP180;55731;45.456;11.064;2022-10-26T02:40:49;101219.60;;;17.44
68745;BMP180;55731;45.456;11.064;2022-10-26T02:43:24;101218.60;;;17.40
68745;BMP180;55731;45.456;11.064;2022-10-26T02:46:03;101224.60;;;17.40
68745;BMP180;55731;45.456;11.064;2022-10-26T02:48:40;101220.40;;;17.40
68745;BMP180;55731;45.456;11.064;2022-10-26T02:51:23;101221.40;;;17.32
68745;BMP180;55731;45.456;11.064;2022-10-26T02:54:06;101223.00;;;17.40
68745;BMP180;55731;45.456;11.064;2022-10-26T02:56:52;101226.80;;;17.30
68745;BMP180;55731;45.456;11.064;2022-10-26T02:59:29;101225.20;;;17.34
68745;BMP180;55731;45.456;11.064;2022-10-26T03:02:07;101212.80;;;17.40
68745;BMP180;55731;45.456;11.064;2022-10-26T03:04:40;101219.20;;;17.38
68745;BMP180;55731;45.456;11.064;2022-10-26T03:07:15;101221.80;;;17.40
68745;BMP180;55731;45.456;11.064;2022-10-26T03:09:51;101222.00;;;17.40
68745;BMP180;55731;45.456;11.064;2022-10-26T03:12:24;101223.40;;;17.50
68745;BMP180;55731;45.456;11.064;2022-10-26T03:14:57;101226.20;;;17.50
68745;BMP180;55731;45.456;11.064;2022-10-26T03:17:31;101221.20;;;17.50
68745;BMP180;55731;45.456;11.064;2022-10-26T03:20:06;101219.20;;;17.50
68745;BMP180;55731;45.456;11.064;2022-10-26T03:22:39;101226.80;;;17.40
68745;BMP180;55731;45.456;11.064;2022-10-26T03:25:14;101231.40;;;17.30
68745;BMP180;55731;45.456;11.064;2022-10-26T03:27:46;101230.80;;;17.30
68745;BMP180;55731;45.456;11.064;2022-10-26T03:30:20;101233.80;;;17.30
68745;BMP180;55731;45.456;11.064;2022-10-26T03:32:53;101224.80;;;17.20
68745;BMP180;55731;45.456;11.064;2022-10-26T03:35:29;101227.80;;;17.20
68745;BMP180;55731;45.456;11.064;2022-10-26T03:38:01;101224.40;;;17.10
68745;BMP180;55731;45.456;11.064;2022-10-26T03:40:35;101227.20;;;17.00
68745;BMP180;55731;45.456;11.064;2022-10-26T03:43:09;101221.60;;;17.00
68745;BMP180;55731;45.456;11.064;2022-10-26T03:45:42;101221.20;;;17.00
68745;BMP180;55731;45.456;11.064;2022-10-26T03:48:15;101225.20;;;17.00
68745;BMP180;55731;45.456;11.064;2022-10-26T03:50:49;101223.40;;;16.98
68745;BMP180;55731;45.456;11.064;2022-10-26T03:53:22;101225.80;;;16.90
68745;BMP180;55731;45.456;11.064;2022-10-26T03:55:55;101231.60;;;16.90
68745;BMP180;55731;45.456;11.064;2022-10-26T03:58:28;101228.60;;;16.98
68745;BMP180;55731;45.456;11.064;2022-10-26T04:01:01;101231.00;;;17.00
68745;BMP180;55731;45.456;11.064;2022-10-26T04:03:34;101226.20;;;16.92
68745;BMP180;55731;45.456;11.064;2022-10-26T04:06:09;101227.60;;;16.90
68745;BMP180;55731;45.456;11.064;2022-10-26T04:08:42;101225.20;;;16.80
68745;BMP180;55731;45.456;11.064;2022-10-26T04:11:15;101231.00;;;16.80
68745;BMP180;55731;45.456;11.064;2022-10-26T04:13:50;101231.80;;;16.84
68745;BMP180;55731;45.456;11.064;2022-10-26T04:16:22;101229.80;;;16.90
68745;BMP180;55731;45.456;11.064;2022-10-26T04:19:04;101230.40;;;16.90
68745;BMP180;55731;45.456;11.064;2022-10-26T04:21:37;101233.60;;;17.00
68745;BMP180;55731;45.456;11.064;2022-10-26T04:24:12;101233.60;;;17.10
68745;BMP180;55731;45.456;11.064;2022-10-26T04:26:47;101230.00;;;17.10
68745;BMP180;55731;45.456;11.064;2022-10-26T04:29:20;101238.20;;;17.18
68745;BMP180;55731;45.456;11.064;2022-10-26T04:31:53;101238.00;;;17.20
68745;BMP180;55731;45.456;11.064;2022-10-26T04:34:26;101236.60;;;17.20
68745;BMP180;55731;45.456;11.064;2022-10-26T04:37:00;101239.20;;;17.30
68745;BMP180;55731;45.456;11.064;2022-10-26T04:39:33;101239.60;;;17.30
68745;BMP180;55731;45.456;11.064;2022-10-26T04:42:06;101238.80;;;17.30
68745;BMP180;55731;45.456;11.064;2022-10-26T04:44:39;101238.60;;;17.40
68745;BMP180;55731;45.456;11.064;2022-10-26T04:47:13;101239.80;;;17.40
68745;BMP180;55731;45.456;11.064;2022-10-26T04:49:47;101242.20;;;17.40
68745;BMP180;55731;45.456;11.064;2022-10-26T04:52:19;101238.00;;;17.42
68745;BMP180;55731;45.456;11.064;2022-10-26T04:54:52;101236.20;;;17.50
68745;BMP180;55731;45.456;11.064;2022-10-26T04:57:25;101239.80;;;17.50
68745;BMP180;55731;45.456;11.064;2022-10-26T04:59:59;101234.20;;;17.60
68745;BMP180;55731;45.456;11.064;2022-10-26T05:02:33;101238.00;;;17.60
68745;BMP180;55731;45.456;11.064;2022-10-26T05:05:09;101232.80;;;17.60
68745;BMP180;55731;45.456;11.064;2022-10-26T05:07:53;101231.80;;;17.60
68745;BMP180;55731;45.456;11.064;2022-10-26T05:10:29;101234.80;;;17.60
68745;BMP180;55731;45.456;11.064;2022-10-26T05:13:02;101232.20;;;17.60
68745;BMP180;55731;45.456;11.064;2022-10-26T05:15:34;101233.00;;;17.70
68745;BMP180;55731;45.456;11.064;2022-10-26T05:18:08;101225.60;;;17.70
68745;BMP180;55731;45.456;11.064;2022-10-26T05:20:41;101220.60;;;17.80
68745;BMP180;55731;45.456;11.064;2022-10-26T05:23:15;101222.60;;;17.80
68745;BMP180;55731;45.456;11.064;2022-10-26T05:25:48;101213.60;;;17.80
68745;BMP180;55731;45.456;11.064;2022-10-26T05:28:22;101210.20;;;17.80
68745;BMP180;55731;45.456;11.064;2022-10-26T05:30:57;101209.60;;;17.74
68745;BMP180;55731;45.456;11.064;2022-10-26T05:33:29;101208.40;;;17.80
68745;BMP180;55731;45.456;11.064;2022-10-26T05:36:03;101210.60;;;17.80
68745;BMP180;55731;45.456;11.064;2022-10-26T05:38:36;101204.80;;;17.80
68745;BMP180;55731;45.456;11.064;2022-10-26T05:44:30;101201.00;;;17.80
68745;BMP180;55731;45.456;11.064;2022-10-26T05:47:05;101203.00;;;17.80
68745;BMP180;55731;45.456;11.064;2022-10-26T05:49:38;101207.60;;;17.86
68745;BMP180;55731;45.456;11.064;2022-10-26T05:52:11;101213.20;;;17.90
68745;BMP180;55731;45.456;11.064;2022-10-26T05:54:45;101218.40;;;17.90
68745;BMP180;55731;45.456;11.064;2022-10-26T05:57:23;101225.20;;;17.90
68745;BMP180;55731;45.456;11.064;2022-10-26T06:00:05;101227.40;;;17.90
68745;BMP180;55731;45.456;11.064;2022-10-26T06:03:00;101234.80;;;17.90
68745;BMP180;55731;45.456;11.064;2022-10-26T06:05:52;101243.20;;;17.90
68745;BMP180;55731;45.456;11.064;2022-10-26T06:08:30;101246.20;;;17.90
68745;BMP180;55731;45.456;11.064;2022-10-26T06:11:09;101247.60;;;17.90
68745;BMP180;55731;45.456;11.064;2022-10-26T06:13:47;101247.80;;;17.90
68745;BMP180;55731;45.456;11.064;2022-10-26T06:17:00;101248.40;;;17.90
68745;BMP180;55731;45.456;11.064;2022-10-26T06:19:54;101245.40;;;17.80
68745;BMP180;55731;45.456;11.064;2022-10-26T06:22:46;101247.60;;;17.80
68745;BMP180;55731;45.456;11.064;2022-10-26T06:25:35;101251.40;;;17.78
68745;BMP180;55731;45.456;11.064;2022-10-26T06:28:28;101259.80;;;17.80
68745;BMP180;55731;45.456;11.064;2022-10-26T06:31:04;101267.60;;;17.80
68745;BMP180;55731;45.456;11.064;2022-10-26T06:33:39;101272.40;;;17.90
68745;BMP180;55731;45.456;11.064;2022-10-26T06:36:23;101276.80;;;17.90
68745;BMP180;55731;45.456;11.064;2022-10-26T06:39:01;101280.80;;;17.90
68745;BMP180;55731;45.456;11.064;2022-10-26T06:41:37;101286.60;;;17.90
68745;BMP180;55731;45.456;11.064;2022-10-26T06:44:21;101289.00;;;18.00
68745;BMP180;55731;45.456;11.064;2022-10-26T06:47:04;101297.20;;;18.00
68745;BMP180;55731;45.456;11.064;2022-10-26T06:49:45;101297.60;;;18.00
68745;BMP180;55731;45.456;11.064;2022-10-26T06:52:34;101300.20;;;17.90
68745;BMP180;55731;45.456;11.064;2022-10-26T06:55:18;101304.60;;;17.90
68745;BMP180;55731;45.456;11.064;2022-10-26T06:57:54;101301.40;;;17.80
68745;BMP180;55731;45.456;11.064;2022-10-26T07:00:33;101304.20;;;17.80
68745;BMP180;55731;45.456;11.064;2022-10-26T07:03:07;101305.60;;;17.80
68745;BMP180;55731;45.456;11.064;2022-10-26T07:05:40;101303.60;;;17.80
68745;BMP180;55731;45.456;11.064;2022-10-26T07:08:13;101303.80;;;17.80
68745;BMP180;55731;45.456;11.064;2022-10-26T07:10:48;101307.40;;;17.80
68745;BMP180;55731;45.456;11.064;2022-10-26T07:13:21;101310.60;;;17.90
68745;BMP180;55731;45.456;11.064;2022-10-26T07:15:54;101313.00;;;17.88
68745;BMP180;55731;45.456;11.064;2022-10-26T07:18:28;101305.20;;;17.90
68745;BMP180;55731;45.456;11.064;2022-10-26T07:21:01;101306.20;;;18.00
68745;BMP180;55731;45.456;11.064;2022-10-26T07:23:35;101304.80;;;18.00
68745;BMP180;55731;45.456;11.064;2022-10-26T07:26:09;101307.60;;;18.10
68745;BMP180;55731;45.456;11.064;2022-10-26T07:28:42;101310.60;;;18.10
68745;BMP180;55731;45.456;11.064;2022-10-26T07:31:16;101310.40;;;18.12
68745;BMP180;55731;45.456;11.064;2022-10-26T07:33:51;101317.20;;;18.20
68745;BMP180;55731;45.456;11.064;2022-10-26T07:36:25;101318.00;;;18.20
68745;BMP180;55731;45.456;11.064;2022-10-26T07:39:01;101317.20;;;18.30
68745;BMP180;55731;45.456;11.064;2022-10-26T07:41:34;101318.40;;;18.32
68745;BMP180;55731;45.456;11.064;2022-10-26T07:44:07;101313.60;;;18.40
68745;BMP180;55731;45.456;11.064;2022-10-26T07:46:40;101316.60;;;18.40
68745;BMP180;55731;45.456;11.064;2022-10-26T07:49:14;101324.20;;;18.40
68745;BMP180;55731;45.456;11.064;2022-10-26T07:51:51;101330.80;;;18.40
68745;BMP180;55731;45.456;11.064;2022-10-26T07:54:27;101336.00;;;18.40
68745;BMP180;55731;45.456;11.064;2022-10-26T07:57:01;101331.60;;;18.50
68745;BMP180;55731;45.456;11.064;2022-10-26T07:59:34;101331.60;;;18.50
68745;BMP180;55731;45.456;11.064;2022-10-26T08:02:09;101327.60;;;18.60
68745;BMP180;55731;45.456;11.064;2022-10-26T08:04:42;101328.40;;;18.70
68745;BMP180;55731;45.456;11.064;2022-10-26T08:07:15;101331.40;;;18.70
68745;BMP180;55731;45.456;11.064;2022-10-26T08:09:49;101332.40;;;18.80
68745;BMP180;55731;45.456;11.064;2022-10-26T08:12:25;101336.80;;;18.80
68745;BMP180;55731;45.456;11.064;2022-10-26T08:14:57;101331.80;;;18.76
68745;BMP180;55731;45.456;11.064;2022-10-26T08:17:31;101338.60;;;18.80
68745;BMP180;55731;45.456;11.064;2022-10-26T08:20:10;101339.60;;;18.80
68745;BMP180;55731;45.456;11.064;2022-10-26T08:22:45;101346.60;;;18.80
68745;BMP180;55731;45.456;11.064;2022-10-26T08:25:20;101352.60;;;18.80
68745;BMP180;55731;45.456;11.064;2022-10-26T08:27:52;101346.20;;;18.86
68745;BMP180;55731;45.456;11.064;2022-10-26T08:30:28;101348.40;;;18.90
68745;BMP180;55731;45.456;11.064;2022-10-26T08:33:03;101346.60;;;18.90
68745;BMP180;55731;45.456;11.064;2022-10-26T08:35:37;101355.40;;;18.90
68745;BMP180;55731;45.456;11.064;2022-10-26T08:38:09;101356.00;;;19.00
68745;BMP180;55731;45.456;11.064;2022-10-26T08:40:44;101357.80;;;19.00
68745;BMP180;55731;45.456;11.064;2022-10-26T08:43:26;101360.60;;;19.10
68745;BMP180;55731;45.456;11.064;2022-10-26T08:46:08;101363.20;;;19.10
68745;BMP180;55731;45.456;11.064;2022-10-26T08:48:46;101366.80;;;19.10
68745;BMP180;55731;45.456;11.064;2022-10-26T08:51:24;101370.20;;;19.10
68745;BMP180;55731;45.456;11.064;2022-10-26T08:54:04;101372.40;;;19.10
68745;BMP180;55731;45.456;11.064;2022-10-26T08:56:44;101373.60;;;19.10
68745;BMP180;55731;45.456;11.064;2022-10-26T08:59:33;101369.80;;;19.10
68745;BMP180;55731;45.456;11.064;2022-10-26T09:02:14;101366.20;;;19.20
68745;BMP180;55731;45.456;11.064;2022-10-26T09:04:48;101376.80;;;19.20
68745;BMP180;55731;45.456;11.064;2022-10-26T09:07:39;101383.20;;;19.30
68745;BMP180;55731;45.456;11.064;2022-10-26T09:10:32;101377.40;;;19.30
68745;BMP180;55731;45.456;11.064;2022-10-26T09:13:22;101374.80;;;19.34
68745;BMP180;55731;45.456;11.064;2022-10-26T09:16:09;101373.80;;;19.40
68745;BMP180;55731;45.456;11.064;2022-10-26T09:18:57;101380.20;;;19.42
68745;BMP180;55731;45.456;11.064;2022-10-26T09:21:49;101384.40;;;19.50
68745;BMP180;55731;45.456;11.064;2022-10-26T09:24:32;101384.00;;;19.60
68745;BMP180;55731;45.456;11.064;2022-10-26T09:27:15;101389.20;;;19.60
68745;BMP180;55731;45.456;11.064;2022-10-26T09:29:52;101380.20;;;19.60
68745;BMP180;55731;45.456;11.064;2022-10-26T09:32:33;101384.80;;;19.60
68745;BMP180;55731;45.456;11.064;2022-10-26T09:35:14;101383.60;;;19.60
68745;BMP180;55731;45.456;11.064;2022-10-26T09:37:58;101380.80;;;19.70
68745;BMP180;55731;45.456;11.064;2022-10-26T09:40:44;101383.80;;;19.70
68745;BMP180;55731;45.456;11.064;2022-10-26T09:43:27;101386.00;;;19.70
68745;BMP180;55731;45.456;11.064;2022-10-26T09:46:01;101390.20;;;19.70
68745;BMP180;55731;45.456;11.064;2022-10-26T09:48:41;101395.40;;;19.80
68745;BMP180;55731;45.456;11.064;2022-10-26T09:51:17;101388.00;;;19.80
68745;BMP180;55731;45.456;11.064;2022-10-26T09:53:51;101387.20;;;19.90
68745;BMP180;55731;45.456;11.064;2022-10-26T09:56:29;101392.80;;;19.98
68745;BMP180;55731;45.456;11.064;2022-10-26T09:59:08;101388.40;;;20.00
68745;BMP180;55731;45.456;11.064;2022-10-26T10:01:42;101391.00;;;20.10
68745;BMP180;55731;45.456;11.064;2022-10-26T10:04:23;101389.20;;;20.20
68745;BMP180;55731;45.456;11.064;2022-10-26T10:07:16;101393.60;;;20.20
68745;BMP180;55731;45.456;11.064;2022-10-26T10:10:14;101394.40;;;20.28
68745;BMP180;55731;45.456;11.064;2022-10-26T10:12:50;101390.20;;;20.30
68745;BMP180;55731;45.456;11.064;2022-10-26T10:15:25;101390.00;;;20.30
68745;BMP180;55731;45.456;11.064;2022-10-26T10:18:01;101390.60;;;20.30
68745;BMP180;55731;45.456;11.064;2022-10-26T10:20:35;101390.40;;;20.30
68745;BMP180;55731;45.456;11.064;2022-10-26T10:23:48;101386.00;;;20.30
68745;BMP180;55731;45.456;11.064;2022-10-26T10:26:24;101383.80;;;20.30
68745;BMP180;55731;45.456;11.064;2022-10-26T10:29:00;101382.60;;;20.38
68745;BMP180;55731;45.456;11.064;2022-10-26T10:31:34;101382.00;;;20.40
68745;BMP180;55731;45.456;11.064;2022-10-26T10:34:22;101377.00;;;20.50
68745;BMP180;55731;45.456;11.064;2022-10-26T10:36:56;101377.60;;;20.60
68745;BMP180;55731;45.456;11.064;2022-10-26T10:39:44;101382.60;;;20.60
68745;BMP180;55731;45.456;11.064;2022-10-26T10:42:22;101378.00;;;20.70
68745;BMP180;55731;45.456;11.064;2022-10-26T10:45:00;101376.80;;;20.80
68745;BMP180;55731;45.456;11.064;2022-10-26T10:47:37;101371.40;;;20.90
68745;BMP180;55731;45.456;11.064;2022-10-26T10:50:19;101373.20;;;21.00
68745;BMP180;55731;45.456;11.064;2022-10-26T10:52:53;101367.40;;;21.10
68745;BMP180;55731;45.456;11.064;2022-10-26T10:56:02;101366.20;;;21.20
68745;BMP180;55731;45.456;11.064;2022-10-26T10:58:54;101367.40;;;21.30
68745;BMP180;55731;45.456;11.064;2022-10-26T11:01:39;101366.40;;;21.38
68745;BMP180;55731;45.456;11.064;2022-10-26T11:07:18;101356.20;;;21.50
68745;BMP180;55731;45.456;11.064;2022-10-26T11:09:56;101355.40;;;21.60
68745;BMP180;55731;45.456;11.064;2022-10-26T11:12:36;101357.80;;;21.70
68745;BMP180;55731;45.456;11.064;2022-10-26T11:15:21;101346.40;;;21.80
68745;BMP180;55731;45.456;11.064;2022-10-26T11:18:05;101344.40;;;21.90
68745;BMP180;55731;45.456;11.064;2022-10-26T11:20:46;101347.80;;;22.00
68745;BMP180;55731;45.456;11.064;2022-10-26T11:23:28;101341.40;;;22.10
68745;BMP180;55731;45.456;11.064;2022-10-26T11:26:14;101338.60;;;22.20
68745;BMP180;55731;45.456;11.064;2022-10-26T11:28:54;101336.20;;;22.20
68745;BMP180;55731;45.456;11.064;2022-10-26T11:31:35;101331.80;;;22.20
68745;BMP180;55731;45.456;11.064;2022-10-26T11:34:33;101328.60;;;22.20
68745;BMP180;55731;45.456;11.064;2022-10-26T11:37:16;101328.80;;;22.20
68745;BMP180;55731;45.456;11.064;2022-10-26T11:40:12;101320.20;;;22.28
68745;BMP180;55731;45.456;11.064;2022-10-26T11:42:55;101321.20;;;22.30
68745;BMP180;55731;45.456;11.064;2022-10-26T11:45:34;101319.80;;;22.40
68745;BMP180;55731;45.456;11.064;2022-10-26T11:48:18;101327.00;;;22.40
68745;BMP180;55731;45.456;11.064;2022-10-26T11:50:56;101323.40;;;22.50
68745;BMP180;55731;45.456;11.064;2022-10-26T11:53:34;101322.60;;;22.60
68745;BMP180;55731;45.456;11.064;2022-10-26T11:56:22;101327.40;;;22.62
68745;BMP180;55731;45.456;11.064;2022-10-26T11:58:57;101327.00;;;22.70
68745;BMP180;55731;45.456;11.064;2022-10-26T12:01:33;101319.40;;;22.80
68745;BMP180;55731;45.456;11.064;2022-10-26T12:04:09;101318.40;;;22.80
68745;BMP180;55731;45.456;11.064;2022-10-26T12:06:43;101317.60;;;22.90
68745;BMP180;55731;45.456;11.064;2022-10-26T12:09:22;101322.80;;;22.90
68745;BMP180;55731;45.456;11.064;2022-10-26T12:12:05;101321.60;;;23.00
68745;BMP180;55731;45.456;11.064;2022-10-26T12:14:50;101326.00;;;23.00
68745;BMP180;55731;45.456;11.064;2022-10-26T12:17:34;101321.80;;;23.00
68745;BMP180;55731;45.456;11.064;2022-10-26T12:20:55;101319.00;;;23.00
68745;BMP180;55731;45.456;11.064;2022-10-26T12:23:36;101324.00;;;23.00
68745;BMP180;55731;45.456;11.064;2022-10-26T12:27:02;101323.00;;;23.10
68745;BMP180;55731;45.456;11.064;2022-10-26T12:29:47;101318.60;;;23.10
68745;BMP180;55731;45.456;11.064;2022-10-26T12:32:52;101320.60;;;23.10
68745;BMP180;55731;45.456;11.064;2022-10-26T12:35:39;101320.40;;;23.10
68745;BMP180;55731;45.456;11.064;2022-10-26T12:38:57;101314.20;;;23.10
68745;BMP180;55731;45.456;11.064;2022-10-26T12:41:30;101311.20;;;23.08
68745;BMP180;55731;45.456;11.064;2022-10-26T12:44:33;101308.80;;;23.10
68745;BMP180;55731;45.456;11.064;2022-10-26T12:47:08;101303.40;;;23.10
68745;BMP180;55731;45.456;11.064;2022-10-26T12:50:24;101304.20;;;23.20
68745;BMP180;55731;45.456;11.064;2022-10-26T12:53:05;101309.60;;;23.20
68745;BMP180;55731;45.456;11.064;2022-10-26T12:56:10;101307.80;;;23.20
68745;BMP180;55731;45.456;11.064;2022-10-26T13:08:45;101315.80;;;23.20
68745;BMP180;55731;45.456;11.064;2022-10-26T13:11:27;101318.20;;;23.20
68745;BMP180;55731;45.456;11.064;2022-10-26T13:14:05;101314.00;;;23.14
68745;BMP180;55731;45.456;11.064;2022-10-26T13:16:45;101308.60;;;23.10
68745;BMP180;55731;45.456;11.064;2022-10-26T13:19:36;101310.00;;;23.10
68745;BMP180;55731;45.456;11.064;2022-10-26T13:22:19;101311.60;;;23.10
68745;BMP180;55731;45.456;11.064;2022-10-26T13:24:57;101309.60;;;23.10
68745;BMP180;55731;45.456;11.064;2022-10-26T13:27:58;101307.00;;;23.10
68745;BMP180;55731;45.456;11.064;2022-10-26T13:30:45;101307.40;;;23.10
68745;BMP180;55731;45.456;11.064;2022-10-26T13:33:24;101313.40;;;23.16
68745;BMP180;55731;45.456;11.064;2022-10-26T13:36:18;101312.00;;;23.20
68745;BMP180;55731;45.456;11.064;2022-10-26T13:39:00;101307.40;;;23.24
68745;BMP180;55731;45.456;11.064;2022-10-26T13:41:43;101305.20;;;23.30
68745;BMP180;55731;45.456;11.064;2022-10-26T13:44:24;101301.40;;;23.30
68745;BMP180;55731;45.456;11.064;2022-10-26T13:47:03;101300.60;;;23.30
68745;BMP180;55731;45.456;11.064;2022-10-26T13:49:42;101303.80;;;23.30
68745;BMP180;55731;45.456;11.064;2022-10-26T13:52:22;101300.60;;;23.30
68745;BMP180;55731;45.456;11.064;2022-10-26T13:55:03;101304.60;;;23.28
68745;BMP180;55731;45.456;11.064;2022-10-26T13:57:44;101302.80;;;23.20
68745;BMP180;55731;45.456;11.064;2022-10-26T14:00:22;101301.40;;;23.20
68745;BMP180;55731;45.456;11.064;2022-10-26T14:02:55;101307.00;;;23.20
68745;BMP180;55731;45.456;11.064;2022-10-26T14:05:30;101301.80;;;23.16
68745;BMP180;55731;45.456;11.064;2022-10-26T14:08:04;101304.00;;;23.10
68745;BMP180;55731;45.456;11.064;2022-10-26T14:10:42;101303.80;;;23.12
68745;BMP180;55731;45.456;11.064;2022-10-26T14:13:22;101303.80;;;23.20
68745;BMP180;55731;45.456;11.064;2022-10-26T14:15:57;101301.60;;;23.10
68745;BMP180;55731;45.456;11.064;2022-10-26T14:18:31;101297.00;;;23.10
68745;BMP180;55731;45.456;11.064;2022-10-26T14:21:11;101299.60;;;23.10
68745;BMP180;55731;45.456;11.064;2022-10-26T14:23:51;101301.40;;;23.10
68745;BMP180;55731;45.456;11.064;2022-10-26T14:26:29;101301.60;;;23.10
68745;BMP180;55731;45.456;11.064;2022-10-26T14:29:03;101303.80;;;23.10
68745;BMP180;55731;45.456;11.064;2022-10-26T14:31:45;101304.40;;;23.04
68745;BMP180;55731;45.456;11.064;2022-10-26T14:34:18;101305.00;;;23.00
68745;BMP180;55731;45.456;11.064;2022-10-26T14:36:54;101305.40;;;23.00
68745;BMP180;55731;45.456;11.064;2022-10-26T14:39:37;101310.00;;;23.00
68745;BMP180;55731;45.456;11.064;2022-10-26T14:42:23;101306.00;;;23.00
68745;BMP180;55731;45.456;11.064;2022-10-26T14:44:58;101306.20;;;22.90
68745;BMP180;55731;45.456;11.064;2022-10-26T14:47:33;101307.40;;;22.90
68745;BMP180;55731;45.456;11.064;2022-10-26T14:50:22;101308.80;;;22.90
68745;BMP180;55731;45.456;11.064;2022-10-26T14:53:02;101306.80;;;22.90
68745;BMP180;55731;45.456;11.064;2022-10-26T14:55:48;101308.80;;;22.80
68745;BMP180;55731;45.456;11.064;2022-10-26T14:58:25;101313.40;;;22.80
68745;BMP180;55731;45.456;11.064;2022-10-26T15:04:38;101317.20;;;22.76
68745;BMP180;55731;45.456;11.064;2022-10-26T15:07:18;101318.80;;;22.70
68745;BMP180;55731;45.456;11.064;2022-10-26T15:09:51;101320.80;;;22.70
68745;BMP180;55731;45.456;11.064;2022-10-26T15:12:32;101319.60;;;22.70
68745;BMP180;55731;45.456;11.064;2022-10-26T15:15:21;101322.40;;;22.66
68745;BMP180;55731;45.456;11.064;2022-10-26T15:17:56;101326.60;;;22.60
68745;BMP180;55731;45.456;11.064;2022-10-26T15:20:31;101326.80;;;22.60